createdAt,value
2023-01-22T00:03:44.694Z,90.29
2023-01-22T00:07:54.056Z,90.14
2023-01-22T00:12:01.801Z,89.98
2023-01-22T00:16:12.036Z,90.11
2023-01-22T00:20:20.941Z,90.00
2023-01-22T00:24:29.128Z,89.93
2023-01-22T00:28:37.959Z,89.83
2023-01-22T00:32:46.947Z,89.81
2023-01-22T00:36:55.968Z,90.09
2023-01-22T00:41:05.906Z,89.79
2023-01-22T00:45:15.856Z,90.05
2023-01-22T00:49:23.707Z,90.04
2023-01-22T00:53:31.281Z,89.95
2023-01-22T00:57:39.786Z,90.11
2023-01-22T01:01:47.882Z,90.02
2023-01-22T01:05:55.919Z,89.94
2023-01-22T01:10:03.773Z,89.94
2023-01-22T01:14:12.831Z,89.77
2023-01-22T01:18:22.527Z,89.55
2023-01-22T01:22:30.546Z,89.63
2023-01-22T01:26:37.994Z,89.50
2023-01-22T01:30:46.615Z,89.63
2023-01-22T01:34:54.491Z,89.52
2023-01-22T01:39:03.567Z,89.62
2023-01-22T01:43:17.019Z,89.56
2023-01-22T01:47:31.478Z,89.34
2023-01-22T01:51:39.839Z,89.41
2023-01-22T01:55:47.604Z,89.19
2023-01-22T01:59:56.066Z,89.34
2023-01-22T02:04:04.318Z,89.09
2023-01-22T02:08:12.620Z,89.25
2023-01-22T02:12:20.505Z,89.20
2023-01-22T02:16:28.600Z,89.28
2023-01-22T02:20:38.577Z,89.25
2023-01-22T02:24:46.336Z,89.08
2023-01-22T02:28:53.894Z,89.11
2023-01-22T02:33:01.995Z,88.93
2023-01-22T02:37:11.358Z,88.87
2023-01-22T02:41:19.504Z,88.92
2023-01-22T02:45:27.629Z,89.01
2023-01-22T02:49:35.444Z,88.88
2023-01-22T02:53:42.881Z,88.57
2023-01-22T02:57:50.852Z,88.59
2023-01-22T03:01:58.586Z,88.76
2023-01-22T03:06:07.061Z,88.46
2023-01-22T03:10:18.915Z,88.62
2023-01-22T03:14:43.852Z,88.32
2023-01-22T03:19:08.601Z,88.59
2023-01-22T03:23:16.604Z,88.51
2023-01-22T03:27:25.977Z,88.56
2023-01-22T03:31:34.055Z,88.48
2023-01-22T03:35:42.181Z,88.39
2023-01-22T03:39:50.147Z,88.21
2023-01-22T03:43:59.171Z,88.23
2023-01-22T03:48:07.623Z,88.09
2023-01-22T03:52:15.877Z,88.29
2023-01-22T03:56:26.467Z,88.25
2023-01-22T04:00:34.256Z,88.05
2023-01-22T04:04:44.711Z,88.27
2023-01-22T04:08:54.758Z,88.02
2023-01-22T04:13:02.486Z,88.14
2023-01-22T04:17:10.984Z,88.37
2023-01-22T04:21:19.165Z,88.33
2023-01-22T04:25:27.729Z,88.45
2023-01-22T04:29:35.318Z,88.31
2023-01-22T04:33:43.385Z,88.21
2023-01-22T04:37:51.375Z,88.19
2023-01-22T04:41:59.680Z,88.09
2023-01-22T04:46:08.284Z,88.21
2023-01-22T04:50:18.373Z,88.27
2023-01-22T04:54:26.618Z,88.26
2023-01-22T04:58:34.374Z,88.29
2023-01-22T05:02:43.960Z,88.20
2023-01-22T05:06:51.958Z,88.44
2023-01-22T05:11:04.132Z,88.25
2023-01-22T05:15:23.576Z,88.57
2023-01-22T05:19:32.823Z,88.40
2023-01-22T05:23:40.918Z,88.53
2023-01-22T05:27:48.498Z,88.50
2023-01-22T05:31:56.029Z,88.39
2023-01-22T05:36:05.462Z,88.28
2023-01-22T05:40:14.931Z,88.28
2023-01-22T05:44:22.848Z,88.44
2023-01-22T05:48:30.418Z,88.49
2023-01-22T05:52:38.422Z,88.07
2023-01-22T05:56:45.592Z,88.04
2023-01-22T06:00:55.001Z,87.98
2023-01-22T06:05:03.260Z,87.82
2023-01-22T06:09:12.699Z,87.68
2023-01-22T06:13:20.404Z,87.61
2023-01-22T06:17:28.017Z,87.39
2023-01-22T06:21:37.097Z,87.14
2023-01-22T06:25:44.531Z,87.49
2023-01-22T06:29:52.102Z,87.28
2023-01-22T06:34:00.097Z,87.36
2023-01-22T06:38:08.993Z,87.41
2023-01-22T06:42:17.607Z,87.50
2023-01-22T06:46:25.350Z,87.36
2023-01-22T06:50:33.051Z,87.16
2023-01-22T06:54:40.466Z,86.93
2023-01-22T06:58:48.280Z,86.55
2023-01-22T07:02:57.536Z,86.70
2023-01-22T07:07:05.013Z,86.12
2023-01-22T07:11:15.694Z,85.99
2023-01-22T07:15:23.105Z,86.08
2023-01-22T07:19:30.846Z,85.78
2023-01-22T07:23:39.376Z,85.33
2023-01-22T07:27:47.752Z,85.41
2023-01-22T07:31:55.550Z,85.34
2023-01-22T07:36:03.147Z,85.26
2023-01-22T07:40:13.533Z,85.11
2023-01-22T07:44:21.941Z,85.15
2023-01-22T07:48:29.818Z,85.26
2023-01-22T07:52:37.374Z,85.15
2023-01-22T07:56:45.643Z,84.92
2023-01-22T08:00:54.180Z,85.01
2023-01-22T08:05:05.310Z,85.19
2023-01-22T08:09:15.682Z,85.00
2023-01-22T08:13:23.566Z,84.97
2023-01-22T08:17:31.279Z,85.07
2023-01-22T08:21:39.165Z,85.07
2023-01-22T08:25:47.110Z,85.14
2023-01-22T08:29:56.245Z,85.26
2023-01-22T08:34:04.437Z,85.16
2023-01-22T08:38:12.546Z,85.60
2023-01-22T08:42:20.001Z,85.58
2023-01-22T08:46:28.051Z,85.68
2023-01-22T08:50:35.946Z,85.76
2023-01-22T08:54:45.110Z,85.71
2023-01-22T08:58:53.593Z,86.03
2023-01-22T09:03:02.324Z,86.14
2023-01-22T09:07:11.216Z,86.17
2023-01-22T09:11:19.176Z,86.42
2023-01-22T09:15:27.588Z,86.42
2023-01-22T09:19:35.425Z,86.51
2023-01-22T09:23:43.353Z,86.57
2023-01-22T09:27:51.324Z,86.55
2023-01-22T09:32:00.131Z,86.47
2023-01-22T09:36:12.941Z,86.34
2023-01-22T09:40:27.535Z,86.21
2023-01-22T09:44:39.307Z,86.06
2023-01-22T09:48:49.772Z,86.24
2023-01-22T09:53:00.442Z,85.99
2023-01-22T09:57:14.846Z,85.80
2023-01-22T10:01:28.163Z,85.84
2023-01-22T10:05:39.212Z,85.71
2023-01-22T10:09:51.024Z,85.58
2023-01-22T10:14:00.366Z,85.56
2023-01-22T10:18:16.652Z,85.63
2023-01-22T10:22:26.879Z,85.56
2023-01-22T10:26:39.467Z,85.49
2023-01-22T10:30:51.742Z,85.39
2023-01-22T10:35:06.347Z,85.58
2023-01-22T10:39:16.125Z,85.39
2023-01-22T10:43:25.953Z,85.29
2023-01-22T10:47:33.817Z,85.54
2023-01-22T10:51:44.259Z,85.65
2023-01-22T10:55:57.111Z,85.90
2023-01-22T11:00:22.522Z,85.66
2023-01-22T11:04:31.739Z,85.68
2023-01-22T11:08:46.515Z,85.55
2023-01-22T11:12:59.745Z,85.85
2023-01-22T11:17:14.986Z,85.79
2023-01-22T11:21:24.885Z,85.91
2023-01-22T11:25:38.114Z,86.08
2023-01-22T11:30:00.992Z,86.19
2023-01-22T11:34:24.952Z,86.20
2023-01-22T11:38:38.893Z,86.34
2023-01-22T11:42:57.066Z,86.12
2023-01-22T11:47:18.666Z,86.40
2023-01-22T11:51:33.080Z,86.31
2023-01-22T11:55:54.912Z,86.58
2023-01-22T12:00:27.779Z,86.38
2023-01-22T12:05:10.252Z,86.40
2023-01-22T12:09:22.264Z,86.40
2023-01-22T12:14:02.897Z,85.97
2023-01-22T12:18:28.232Z,85.82
2023-01-22T12:22:39.836Z,85.84
2023-01-22T12:26:50.977Z,85.93
2023-01-22T12:31:02.704Z,85.52
2023-01-22T12:35:18.510Z,85.63
2023-01-22T12:39:29.883Z,85.57
2023-01-22T12:43:48.312Z,85.46
2023-01-22T12:48:00.229Z,85.73
2023-01-22T12:52:22.048Z,85.80
2023-01-22T12:56:35.405Z,85.76
2023-01-22T13:00:44.892Z,85.92
2023-01-22T13:04:53.121Z,86.08
2023-01-22T13:09:00.937Z,86.06
2023-01-22T13:13:21.963Z,86.12
2023-01-22T13:17:31.579Z,85.87
2023-01-22T13:21:40.153Z,86.22
2023-01-22T13:25:47.877Z,86.25
2023-01-22T13:30:06.967Z,86.38
2023-01-22T13:34:18.214Z,86.37
2023-01-22T13:38:27.969Z,86.32
2023-01-22T13:42:37.142Z,86.56
2023-01-22T13:46:44.673Z,86.44
2023-01-22T13:50:58.176Z,86.43
2023-01-22T13:55:09.001Z,86.54
2023-01-22T13:59:24.446Z,86.47
2023-01-22T14:03:31.861Z,86.34
2023-01-22T14:07:41.318Z,86.28
2023-01-22T14:11:50.127Z,86.26
2023-01-22T14:16:07.092Z,86.27
2023-01-22T14:20:16.344Z,86.25
2023-01-22T14:24:24.213Z,86.52
2023-01-22T14:28:32.811Z,86.60
2023-01-22T14:32:41.146Z,86.48
2023-01-22T14:36:49.696Z,86.67
2023-01-22T14:40:58.115Z,86.44
2023-01-22T14:45:06.798Z,86.57
2023-01-22T14:49:14.131Z,86.55
2023-01-22T14:53:22.447Z,86.76
2023-01-22T14:57:30.495Z,86.55
2023-01-22T15:01:37.887Z,86.48
2023-01-22T15:05:45.623Z,86.57
2023-01-22T15:09:53.214Z,86.69
2023-01-22T15:14:01.748Z,86.65
2023-01-22T15:18:11.821Z,86.84
2023-01-22T15:22:23.009Z,86.91
2023-01-22T15:26:35.212Z,86.99
2023-01-22T15:30:46.918Z,87.17
2023-01-22T15:34:54.883Z,87.21
2023-01-22T15:39:02.995Z,87.33
2023-01-22T15:43:10.968Z,87.37
2023-01-22T15:47:19.080Z,87.44
2023-01-22T15:51:27.433Z,87.50
2023-01-22T15:55:35.256Z,87.48
2023-01-22T15:59:44.017Z,87.61
2023-01-22T16:03:51.892Z,87.55
2023-01-22T16:07:59.551Z,87.67
2023-01-22T16:12:09.266Z,87.79
2023-01-22T16:16:20.540Z,88.11
2023-01-22T16:20:28.629Z,87.70
2023-01-22T16:24:36.179Z,87.61
2023-01-22T16:28:44.783Z,87.75
2023-01-22T16:32:53.789Z,87.80
2023-01-22T16:37:01.311Z,87.85
2023-01-22T16:41:29.177Z,87.82
2023-01-22T16:45:38.015Z,87.96
2023-01-22T16:49:46.101Z,87.92
2023-01-22T16:53:53.813Z,87.78
2023-01-22T16:58:01.395Z,87.84
2023-01-22T17:02:16.031Z,87.97
2023-01-22T17:06:27.943Z,88.09
2023-01-22T17:10:35.874Z,88.02
2023-01-22T17:14:46.565Z,88.10
2023-01-22T17:18:56.343Z,88.09
2023-01-22T17:23:04.337Z,88.18
2023-01-22T17:27:18.589Z,88.05
2023-01-22T17:31:27.190Z,88.13
2023-01-22T17:35:35.448Z,88.25
2023-01-22T17:39:46.117Z,88.01
2023-01-22T17:43:56.356Z,88.09
2023-01-22T17:48:04.627Z,88.16
2023-01-22T17:52:13.306Z,88.22
2023-01-22T17:56:23.054Z,88.18
2023-01-22T18:00:31.830Z,87.99
2023-01-22T18:04:40.247Z,88.14
2023-01-22T18:08:48.249Z,88.19
2023-01-22T18:12:56.267Z,88.12
2023-01-22T18:17:04.599Z,87.97
2023-01-22T18:21:16.696Z,87.95
2023-01-22T18:25:24.363Z,87.83
2023-01-22T18:29:32.215Z,87.80
2023-01-22T18:33:40.923Z,87.75
2023-01-22T18:37:51.771Z,87.93
2023-01-22T18:41:59.834Z,87.84
2023-01-22T18:46:11.214Z,88.00
2023-01-22T18:50:20.187Z,88.12
2023-01-22T18:54:29.326Z,87.83
2023-01-22T18:58:38.171Z,87.99
2023-01-22T19:02:46.131Z,88.01
2023-01-22T19:06:57.694Z,88.02
2023-01-22T19:11:07.118Z,88.14
2023-01-22T19:15:16.734Z,88.05
2023-01-22T19:19:25.472Z,87.96
2023-01-22T19:23:34.310Z,88.01
2023-01-22T19:27:41.823Z,88.02
2023-01-22T19:31:52.412Z,87.85
2023-01-22T19:36:00.453Z,87.86
2023-01-22T19:40:14.059Z,87.89
2023-01-22T19:44:22.130Z,87.99
2023-01-22T19:48:30.060Z,87.89
2023-01-22T19:52:37.988Z,88.03
2023-01-22T19:56:46.552Z,88.01
2023-01-22T20:00:58.170Z,88.12
2023-01-22T20:05:06.637Z,87.95
2023-01-22T20:09:17.782Z,88.37
2023-01-22T20:13:26.098Z,88.12
2023-01-22T20:17:37.491Z,88.29
2023-01-22T20:21:45.301Z,88.42
2023-01-22T20:25:53.657Z,88.63
2023-01-22T20:30:01.617Z,88.45
2023-01-22T20:34:09.829Z,88.70
2023-01-22T20:38:18.171Z,88.57
2023-01-22T20:42:26.315Z,88.68
2023-01-22T20:46:34.166Z,88.55
2023-01-22T20:50:44.785Z,88.64
2023-01-22T20:55:01.511Z,88.72
2023-01-22T20:59:11.687Z,88.77
2023-01-22T21:03:19.962Z,88.44
2023-01-22T21:07:27.943Z,88.51
2023-01-22T21:11:37.280Z,88.61
2023-01-22T21:15:45.377Z,88.65
2023-01-22T21:19:53.029Z,88.83
2023-01-22T21:24:01.493Z,88.88
2023-01-22T21:28:10.854Z,89.03
2023-01-22T21:32:20.511Z,88.93
2023-01-22T21:36:28.016Z,89.07
2023-01-22T21:40:35.709Z,88.86
2023-01-22T21:45:00.928Z,88.57
2023-01-22T21:49:21.462Z,88.82
2023-01-22T21:53:29.732Z,88.88
2023-01-22T21:57:39.262Z,88.83
2023-01-22T22:01:50.339Z,88.84
2023-01-22T22:06:02.355Z,88.80
2023-01-22T22:10:15.014Z,88.84
2023-01-22T22:14:23.029Z,88.80
2023-01-22T22:18:30.650Z,88.82
2023-01-22T22:22:39.144Z,88.65
2023-01-22T22:26:47.827Z,88.63
2023-01-22T22:31:03.011Z,88.86
2023-01-22T22:35:11.828Z,88.66
2023-01-22T22:39:19.641Z,88.64
2023-01-22T22:43:27.496Z,88.60
2023-01-22T22:47:38.010Z,88.70
2023-01-22T22:51:46.757Z,88.59
2023-01-22T22:55:54.452Z,88.59
2023-01-22T23:00:04.607Z,88.69
2023-01-22T23:04:12.834Z,88.73
2023-01-22T23:08:20.071Z,88.82
2023-01-22T23:12:28.451Z,88.53
2023-01-22T23:16:37.630Z,88.65
2023-01-22T23:20:45.882Z,88.78
2023-01-22T23:24:54.753Z,88.88
2023-01-22T23:29:03.965Z,88.59
2023-01-22T23:33:12.637Z,88.83
2023-01-22T23:37:20.648Z,88.69
2023-01-22T23:41:28.819Z,88.69
2023-01-22T23:45:40.817Z,88.85
2023-01-22T23:49:48.706Z,88.65
2023-01-22T23:53:57.052Z,88.82
2023-01-22T23:58:04.793Z,88.89
